Time;durP1;ratioP1;P1;durP2;ratioP2;P2;SDS_P1;SDS_P2;PMS_P1;PMS_P2;Temp;Humidity;BMP_temperature;BMP_pressure;BME280_temperature;BME280_humidity;BME280_pressure;Samples;Min_cycle;Max_cycle;Signal;HPM_P1;HPM_P2
2023/03/12 00:02:20;;;;;;;19.77;9.32;;;-2.10;99.90;;;;;;6202961;23;20025;-88
2023/03/12 00:05:10;;;;;;;20.50;9.55;;;-2.20;99.90;;;;;;6231222;23;20072;-88
2023/03/12 00:07:58;;;;;;;18.73;9.63;;;-2.20;99.90;;;;;;6235186;23;20012;-89
2023/03/12 00:10:46;;;;;;;17.05;9.50;;;-2.30;99.90;;;;;;6233422;23;20036;-88
2023/03/12 00:13:33;;;;;;;20.70;8.85;;;-2.30;99.90;;;;;;6231958;23;20028;-88
2023/03/12 00:16:23;;;;;;;17.58;9.32;;;-2.40;99.90;;;;;;6206761;23;20021;-89
2023/03/12 00:19:12;;;;;;;19.27;10.02;;;-2.50;99.90;;;;;;6197558;23;20036;-88
2023/03/12 00:26:12;;;;;;;23.08;8.95;;;-2.70;99.90;;;;;;6219719;23;20035;-88
2023/03/12 00:29:01;;;;;;;21.73;8.25;;;-2.70;99.90;;;;;;6197112;23;20036;-88
2023/03/12 00:31:50;;;;;;;22.60;9.48;;;-2.80;99.90;;;;;;6216878;23;20028;-89
2023/03/12 00:34:37;;;;;;;20.95;9.18;;;-2.80;1.00;;;;;;6218237;23;20104;-89
2023/03/12 00:37:24;;;;;;;19.73;8.40;;;-2.80;1.00;;;;;;6217322;23;20380;-89
2023/03/12 00:40:14;;;;;;;22.80;7.10;;;-2.90;1.00;;;;;;6215564;23;20031;-89
2023/03/12 00:43:01;;;;;;;11.43;5.85;;;-3.00;1.00;;;;;;6215581;23;20051;-88
2023/03/12 00:45:49;;;;;;;14.48;6.38;;;-3.00;1.00;;;;;;6197761;23;20021;-86
2023/03/12 00:48:36;;;;;;;14.27;8.00;;;-3.00;1.00;;;;;;6214848;23;20028;-90
2023/03/12 00:51:29;;;;;;;26.80;10.18;;;-2.90;26.10;;;;;;6216989;23;20028;-87
2023/03/12 00:54:40;;;;;;;22.85;9.20;;;-2.80;99.90;;;;;;6214840;23;20029;-91
2023/03/12 00:58:43;;;;;;;;;;;;;;;;;;;;;
2023/03/12 01:02:25;;;;;;;23.13;9.45;;;-2.70;99.90;;;;;;6098049;23;20031;-89
2023/03/12 01:14:17;;;;;;;20.25;8.27;;;-2.50;99.90;;;;;;6221098;23;20024;-88
2023/03/12 01:22:03;;;;;;;18.65;8.38;;;-2.20;99.90;;;;;;6154171;23;20309;-91
2023/03/12 01:43:12;;;;;;;21.05;7.22;;;-1.80;1.00;;;;;;5981374;23;20769;-90
2023/03/12 01:51:49;;;;;;;18.00;8.30;;;-1.70;1.00;;;;;;6033907;23;20432;-89
2023/03/12 02:07:06;;;;;;;16.42;7.63;;;-1.30;99.90;;;;;;5965719;23;20058;-89
2023/03/12 02:14:05;;;;;;;18.42;6.22;;;-1.20;99.90;;;;;;6021792;23;20059;-86
2023/03/12 02:17:25;;;;;;;17.20;6.30;;;-1.00;99.90;;;;;;6041398;23;20038;-87
2023/03/12 02:21:05;;;;;;;18.52;7.68;;;-0.90;99.90;;;;;;6067298;23;20034;-88
2023/03/12 02:25:11;;;;;;;12.90;6.25;;;-1.00;99.90;;;;;;6066601;23;20027;-89
2023/03/12 02:28:44;;;;;;;;;;;;;;;;;;;;;
2023/03/12 02:32:54;;;;;;;12.52;5.13;;;-1.10;99.90;;;;;;5946756;23;20019;-88
2023/03/12 02:36:17;;;;;;;12.70;5.22;;;-1.00;99.90;;;;;;5993694;23;20039;-89
2023/03/12 02:39:33;;;;;;;;;;;;;;;;;;;;;
2023/03/12 02:42:35;;;;;;;10.25;5.70;;;-0.80;99.90;;;;;;6135639;23;20033;-86
2023/03/12 02:45:44;;;;;;;11.43;5.30;;;-0.70;99.90;;;;;;6127577;23;20025;-87
2023/03/12 02:48:58;;;;;;;13.98;6.82;;;-0.70;96.60;;;;;;6127235;23;20089;-87
2023/03/12 02:52:39;;;;;;;13.73;5.75;;;-0.70;93.30;;;;;;6126630;23;20089;-87
2023/03/12 02:55:45;;;;;;;12.33;5.20;;;-0.70;91.10;;;;;;6125164;23;20032;-86
2023/03/12 02:59:01;;;;;;;13.68;6.07;;;-0.70;85.50;;;;;;6064939;23;20034;-88
2023/03/12 03:01:57;;;;;;;11.48;5.45;;;-0.60;68.70;;;;;;6067091;23;20027;-85
2023/03/12 03:05:19;;;;;;;8.88;4.80;;;-0.40;38.50;;;;;;6067858;23;20062;-86
2023/03/12 03:08:20;;;;;;;13.55;5.07;;;-0.40;13.20;;;;;;6067467;23;20394;-86
2023/03/12 03:11:35;;;;;;;13.23;4.70;;;-0.30;1.00;;;;;;6068357;23;20110;-87
2023/03/12 03:14:57;;;;;;;13.68;6.00;;;-0.20;1.00;;;;;;6067717;23;20053;-87
2023/03/12 03:18:08;;;;;;;14.15;5.07;;;-0.10;1.00;;;;;;6066699;23;20031;-88
2023/03/12 03:21:19;;;;;;;;;;;;;;;;;;;;;
2023/03/12 03:24:18;;;;;;;13.50;5.05;;;0.00;1.00;;;;;;6067020;23;20103;-88
2023/03/12 03:31:04;;;;;;;15.77;7.20;;;0.00;1.00;;;;;;6067593;23;20773;-89
2023/03/12 03:34:11;;;;;;;13.85;7.30;;;-0.10;1.00;;;;;;6066190;23;20031;-90
2023/03/12 03:37:05;;;;;;;18.88;6.72;;;-0.20;1.00;;;;;;6125393;23;20129;-87
2023/03/12 03:43:26;;;;;;;9.52;5.40;;;-0.40;1.00;;;;;;6124213;23;20050;-88
2023/03/12 03:46:20;;;;;;;12.38;5.50;;;-0.40;1.00;;;;;;6124544;23;20426;-89
2023/03/12 03:49:25;;;;;;;11.18;5.03;;;-0.40;1.00;;;;;;6126416;23;20037;-90
2023/03/12 03:52:24;;;;;;;16.05;5.72;;;-0.30;1.50;;;;;;6125237;23;20105;-88
2023/03/12 03:55:19;;;;;;;9.68;5.97;;;-0.20;1.00;;;;;;6125491;23;20026;-88
2023/03/12 03:58:07;;;;;;;9.98;5.78;;;0.00;1.00;;;;;;6143705;23;20402;-87
2023/03/12 04:00:59;;;;;;;12.82;5.18;;;0.00;1.00;;;;;;6155127;23;20029;-86
2023/03/12 04:03:48;;;;;;;10.17;5.07;;;0.10;1.00;;;;;;6156605;23;20421;-88
2023/03/12 04:06:36;;;;;;;10.07;5.95;;;0.20;1.00;;;;;;6154310;23;20248;-88
2023/03/12 04:09:26;;;;;;;10.43;5.18;;;0.20;1.00;;;;;;6155273;23;20029;-88
2023/03/12 04:12:13;;;;;;;9.35;5.05;;;0.30;1.00;;;;;;6155708;23;20037;-87
2023/03/12 04:15:01;;;;;;;12.55;5.80;;;0.30;1.00;;;;;;6155832;23;20029;-86
2023/03/12 04:17:50;;;;;;;11.15;5.95;;;0.30;1.00;;;;;;6155085;23;20030;-87
2023/03/12 04:20:40;;;;;;;10.73;5.60;;;0.40;1.00;;;;;;6154900;23;20025;-87
2023/03/12 04:23:27;;;;;;;12.10;5.22;;;0.40;1.00;;;;;;6135360;23;20097;-88
2023/03/12 04:26:16;;;;;;;10.48;5.53;;;0.40;1.00;;;;;;6155929;23;20084;-85
2023/03/12 04:29:03;;;;;;;8.93;5.38;;;0.40;1.00;;;;;;6154112;23;20129;-88
2023/03/12 04:31:55;;;;;;;12.75;5.78;;;0.50;1.00;;;;;;6152519;23;20084;-87
2023/03/12 04:34:44;;;;;;;10.25;5.63;;;0.60;1.00;;;;;;6153295;23;20032;-87
2023/03/12 04:37:32;;;;;;;15.73;5.50;;;0.70;1.00;;;;;;6153657;23;20092;-88
2023/03/12 04:40:22;;;;;;;12.65;5.82;;;0.70;1.00;;;;;;6153354;23;20026;-86
2023/03/12 04:43:09;;;;;;;10.30;5.32;;;0.80;1.00;;;;;;6154434;23;20759;-87
2023/03/12 04:46:03;;;;;;;13.10;5.53;;;0.90;1.00;;;;;;6154694;23;20398;-88
2023/03/12 04:48:52;;;;;;;10.77;5.57;;;0.90;1.00;;;;;;6153408;23;20133;-88
2023/03/12 04:51:40;;;;;;;11.50;5.70;;;1.00;1.00;;;;;;6132990;23;20105;-87
2023/03/12 04:54:33;;;;;;;10.57;5.00;;;1.00;1.00;;;;;;6155072;23;20421;-87
2023/03/12 04:57:21;;;;;;;14.02;5.60;;;1.10;1.00;;;;;;6155992;23;20373;-88
2023/03/12 05:00:12;;;;;;;10.18;5.00;;;1.10;1.00;;;;;;6154195;23;20026;-87
2023/03/12 05:03:20;;;;;;;8.98;5.20;;;1.20;1.00;;;;;;6154059;23;20067;-88
2023/03/12 05:06:23;;;;;;;9.45;5.03;;;1.30;1.00;;;;;;6154666;23;20117;-89
2023/03/12 05:09:10;;;;;;;9.20;5.40;;;1.30;99.90;;;;;;6156536;23;20045;-89
2023/03/12 05:11:57;;;;;;;11.68;5.70;;;1.40;99.90;;;;;;6159479;23;20021;-88
2023/03/12 05:14:44;;;;;;;9.43;6.03;;;1.30;1.00;;;;;;6155999;23;20022;-88
2023/03/12 05:17:32;;;;;;;10.70;5.75;;;1.30;1.00;;;;;;6155594;23;20022;-87
2023/03/12 05:20:22;;;;;;;16.10;6.10;;;1.30;1.00;;;;;;6153811;23;20116;-88
2023/03/12 05:23:09;;;;;;;9.63;5.47;;;1.20;1.00;;;;;;6152600;23;20077;-87
2023/03/12 05:25:56;;;;;;;15.70;5.72;;;1.20;1.00;;;;;;6154387;23;20381;-88
2023/03/12 05:28:44;;;;;;;12.43;5.93;;;1.10;1.00;;;;;;6154246;23;20164;-88
2023/03/12 05:31:33;;;;;;;13.23;6.13;;;1.10;1.00;;;;;;6153366;23;20111;-87
2023/03/12 05:34:21;;;;;;;13.98;6.50;;;1.10;1.00;;;;;;6155630;23;20087;-88
2023/03/12 05:37:14;;;;;;;16.63;7.63;;;1.20;1.00;;;;;;6153821;23;20044;-88
2023/03/12 05:40:06;;;;;;;12.05;7.00;;;1.10;46.80;;;;;;6153453;23;20158;-88
2023/03/12 05:42:55;;;;;;;13.70;7.63;;;1.10;99.90;;;;;;6154947;23;20057;-88
2023/03/12 05:45:44;;;;;;;17.25;7.75;;;1.00;99.90;;;;;;6156516;23;20088;-87
2023/03/12 05:48:31;;;;;;;14.65;7.28;;;0.90;99.90;;;;;;6155888;23;20090;-87
2023/03/12 05:51:19;;;;;;;14.77;8.32;;;0.80;99.90;;;;;;6154671;23;20053;-87
2023/03/12 05:54:06;;;;;;;18.35;7.97;;;0.70;1.00;;;;;;6154448;23;20100;-86
2023/03/12 05:56:56;;;;;;;11.32;7.75;;;0.60;1.00;;;;;;6157367;23;20053;-89
2023/03/12 05:59:43;;;;;;;16.30;8.20;;;0.50;1.00;;;;;;6155572;23;20032;-89
2023/03/12 06:02:30;;;;;;;17.73;8.32;;;0.50;99.90;;;;;;6154737;23;20112;-88
2023/03/12 06:05:18;;;;;;;15.15;8.95;;;0.40;99.90;;;;;;6153354;23;20038;-86
2023/03/12 06:08:06;;;;;;;16.80;8.70;;;0.30;99.90;;;;;;6154811;23;20116;-87
2023/03/12 06:10:53;;;;;;;16.48;9.15;;;0.20;1.00;;;;;;6246994;23;20024;-87
2023/03/12 06:13:41;;;;;;;19.60;9.80;;;0.10;99.90;;;;;;6244893;23;20039;-85
2023/03/12 06:16:29;;;;;;;16.55;10.27;;;0.10;99.90;;;;;;6225898;23;20117;-88
2023/03/12 06:19:16;;;;;;;16.75;10.43;;;0.10;1.00;;;;;;6224597;23;20032;-88
2023/03/12 06:22:03;;;;;;;18.17;9.85;;;0.20;99.90;;;;;;6243606;23;20051;-90
2023/03/12 06:24:50;;;;;;;19.20;9.32;;;0.30;99.90;;;;;;6243805;23;20035;-88
2023/03/12 06:27:40;;;;;;;14.23;8.63;;;0.30;99.90;;;;;;6247019;23;20076;-89
2023/03/12 06:30:27;;;;;;;22.33;9.63;;;0.30;99.90;;;;;;6225750;23;20035;-89
2023/03/12 06:33:19;;;;;;;17.08;9.85;;;0.40;59.40;;;;;;6246655;23;20396;-88
2023/03/12 06:36:09;;;;;;;19.50;7.60;;;0.50;99.90;;;;;;6244545;23;20054;-89
2023/03/12 06:38:56;;;;;;;16.65;9.07;;;0.50;26.30;;;;;;6247060;23;20032;-90
2023/03/12 06:41:46;;;;;;;20.85;9.38;;;0.60;99.90;;;;;;6247237;23;20384;-89
2023/03/12 06:44:35;;;;;;;15.80;10.05;;;0.50;99.90;;;;;;6250523;23;20031;-88
2023/03/12 06:47:24;;;;;;;17.42;9.73;;;0.60;99.90;;;;;;6251221;23;20035;-87
2023/03/12 06:50:11;;;;;;;21.08;10.85;;;0.60;99.90;;;;;;6231242;23;20042;-88
2023/03/12 06:52:58;;;;;;;24.25;10.93;;;0.50;99.90;;;;;;6222477;23;20086;-89
2023/03/12 06:55:48;;;;;;;16.92;10.60;;;0.50;1.00;;;;;;6244833;23;20048;-88
2023/03/12 06:58:35;;;;;;;21.90;10.25;;;0.60;1.00;;;;;;6234226;23;20025;-88
2023/03/12 07:01:22;;;;;;;26.67;10.18;;;0.70;99.90;;;;;;6214107;23;20114;-89
2023/03/12 07:04:09;;;;;;;15.65;10.13;;;0.60;99.90;;;;;;6216523;23;20103;-89
2023/03/12 07:06:57;;;;;;;24.08;10.80;;;0.60;1.00;;;;;;6215759;23;20477;-89
2023/03/12 07:09:45;;;;;;;20.73;10.98;;;0.60;90.90;;;;;;6215639;23;20031;-89
2023/03/12 07:12:35;;;;;;;21.20;9.23;;;0.60;99.90;;;;;;6215233;23;20024;-88
2023/03/12 07:15:22;;;;;;;22.92;10.38;;;0.70;80.80;;;;;;6214758;23;20052;-90
2023/03/12 07:18:10;;;;;;;23.35;12.27;;;0.80;99.90;;;;;;6215262;23;20032;-87
2023/03/12 07:20:58;;;;;;;25.77;13.50;;;0.80;99.90;;;;;;6215480;23;20408;-89
2023/03/12 07:23:48;;;;;;;27.52;12.18;;;0.80;99.90;;;;;;6235159;23;20079;-88
2023/03/12 07:26:35;;;;;;;25.20;11.52;;;0.80;1.00;;;;;;6214669;23;20352;-89
2023/03/12 07:29:22;;;;;;;20.40;12.43;;;0.80;1.00;;;;;;6233908;23;20031;-90
2023/03/12 07:32:10;;;;;;;27.52;13.65;;;0.90;1.00;;;;;;6215689;23;20020;-89
2023/03/12 07:34:57;;;;;;;19.80;11.52;;;1.00;14.10;;;;;;6233640;23;20103;-89
2023/03/12 07:37:47;;;;;;;16.40;9.10;;;1.10;62.70;;;;;;6215299;23;20044;-89
2023/03/12 07:40:35;;;;;;;24.05;11.02;;;1.20;23.30;;;;;;6214448;23;20118;-88
2023/03/12 07:43:23;;;;;;;15.98;9.93;;;1.30;1.00;;;;;;6231622;23;20295;-87
2023/03/12 07:46:11;;;;;;;18.98;10.43;;;1.40;1.00;;;;;;6213944;23;20039;-89
2023/03/12 07:48:58;;;;;;;16.05;11.25;;;1.60;1.00;;;;;;6215491;23;20021;-90
2023/03/12 07:51:46;;;;;;;19.08;10.48;;;1.90;1.00;;;;;;6213959;23;20308;-89
2023/03/12 07:54:33;;;;;;;18.45;10.38;;;2.30;1.00;;;;;;6214784;23;20029;-88
2023/03/12 07:57:21;;;;;;;14.50;8.65;;;2.50;99.90;;;;;;6214917;23;20024;-89
2023/03/12 08:00:09;;;;;;;15.02;8.43;;;2.60;3.50;;;;;;6216158;23;20040;-88
2023/03/12 08:02:57;;;;;;;15.90;8.15;;;2.70;99.90;;;;;;6193806;23;20490;-89
2023/03/12 08:05:44;;;;;;;15.60;8.15;;;2.70;1.00;;;;;;6195229;23;20052;-88
2023/03/12 08:08:40;;;;;;;13.15;8.30;;;2.90;47.50;;;;;;6217258;23;20028;-88
2023/03/12 08:11:29;;;;;;;16.20;9.60;;;3.20;1.00;;;;;;6216082;23;20503;-91
2023/03/12 08:14:16;;;;;;;19.38;10.73;;;3.40;99.90;;;;;;6217428;23;20029;-89
2023/03/12 08:17:06;;;;;;;19.25;11.25;;;3.40;1.00;;;;;;6193108;23;20090;-90
2023/03/12 08:19:53;;;;;;;22.88;11.38;;;3.40;99.90;;;;;;6213718;23;20028;-88
2023/03/12 08:22:43;;;;;;;21.58;13.57;;;3.30;99.90;;;;;;6215071;23;20031;-87
2023/03/12 08:25:30;;;;;;;25.10;13.65;;;3.20;47.60;;;;;;6212646;23;20031;-88
2023/03/12 08:28:21;;;;;;;22.73;12.75;;;3.40;99.90;;;;;;6213789;23;20029;-87
2023/03/12 08:31:09;;;;;;;21.00;13.07;;;3.50;99.90;;;;;;6214186;23;20032;-88
2023/03/12 08:33:56;;;;;;;25.83;14.50;;;3.70;99.90;;;;;;6193763;23;20028;-89
2023/03/12 08:36:49;;;;;;;21.15;13.73;;;3.80;99.90;;;;;;6214990;23;20130;-87
2023/03/12 08:39:38;;;;;;;26.02;13.55;;;3.90;99.90;;;;;;6215929;23;20024;-87
2023/03/12 08:42:26;;;;;;;20.58;12.52;;;4.00;1.00;;;;;;6224719;23;20031;-85
2023/03/12 08:45:14;;;;;;;25.13;13.52;;;4.10;1.00;;;;;;6202984;23;20404;-88
2023/03/12 08:48:08;;;;;;;21.13;13.43;;;4.00;99.90;;;;;;6215092;23;20152;-88
2023/03/12 08:51:03;;;;;;;23.83;14.23;;;3.90;1.00;;;;;;6215344;23;20040;-88
2023/03/12 08:53:51;;;;;;;25.95;14.35;;;4.00;1.00;;;;;;6215904;23;20033;-87
2023/03/12 08:56:42;;;;;;;24.55;14.07;;;4.10;99.90;;;;;;6213853;23;20036;-87
2023/03/12 08:59:29;;;;;;;21.85;13.95;;;4.20;1.00;;;;;;6215574;23;20025;-86
2023/03/12 09:02:17;;;;;;;23.73;14.85;;;4.20;99.90;;;;;;6216907;23;20365;-87
2023/03/12 09:05:04;;;;;;;25.25;14.23;;;4.30;99.90;;;;;;6216663;23;20475;-86
2023/03/12 09:07:54;;;;;;;22.48;14.77;;;4.50;1.00;;;;;;6218065;23;20086;-88
2023/03/12 09:10:51;;;;;;;23.13;13.63;;;4.80;89.50;;;;;;6215601;23;20094;-88
2023/03/12 09:13:42;;;;;;;20.05;12.93;;;5.30;99.90;;;;;;6215978;23;20405;-88
2023/03/12 09:16:52;;;;;;;21.25;12.18;;;5.60;1.00;;;;;;6217864;23;20064;-89
2023/03/12 09:19:39;;;;;;;15.50;10.55;;;5.70;99.90;;;;;;6218134;23;20056;-87
2023/03/12 09:22:28;;;;;;;21.40;11.93;;;5.60;99.90;;;;;;6217116;23;20020;-89
2023/03/12 09:25:16;;;;;;;18.67;11.75;;;5.50;99.90;;;;;;6219610;23;20021;-88
2023/03/12 09:28:07;;;;;;;17.95;10.65;;;5.70;1.00;;;;;;6218440;23;20421;-88
2023/03/12 09:30:54;;;;;;;18.10;11.18;;;5.80;3.00;;;;;;6220007;23;20028;-93
2023/03/12 09:33:41;;;;;;;22.50;11.45;;;5.80;1.00;;;;;;6197809;23;20032;-93
2023/03/12 09:36:31;;;;;;;18.70;12.05;;;5.70;99.90;;;;;;6219167;23;20025;-88
2023/03/12 09:39:20;;;;;;;20.75;11.95;;;5.80;99.90;;;;;;6197392;23;20100;-88
2023/03/12 09:42:21;;;;;;;18.92;11.43;;;5.90;1.00;;;;;;6216046;23;20024;-86
2023/03/12 09:45:23;;;;;;;21.88;11.88;;;6.20;1.00;;;;;;6217495;23;20029;-89
2023/03/12 09:48:35;;;;;;;14.45;10.45;;;6.40;99.90;;;;;;6219359;23;20050;-88
2023/03/12 09:51:34;;;;;;;23.38;10.98;;;6.70;99.90;;;;;;6216542;23;20028;-88
2023/03/12 09:54:48;;;;;;;16.20;9.57;;;6.80;1.00;;;;;;6197148;23;20025;-89
2023/03/12 09:57:36;;;;;;;13.00;8.40;;;7.30;99.90;;;;;;6227299;23;20024;-87
2023/03/12 10:00:32;;;;;;;10.90;6.63;;;7.90;99.90;;;;;;6248670;23;20404;-87
2023/03/12 10:03:26;;;;;;;11.05;6.88;;;8.00;1.00;;;;;;6249782;22;20020;-90
2023/03/12 10:06:18;;;;;;;11.55;7.05;;;7.90;99.90;;;;;;6247668;23;20028;-86
2023/03/12 10:09:28;;;;;;;7.93;5.65;;;7.80;1.00;;;;;;6227024;23;20336;-89
2023/03/12 10:12:27;;;;;;;6.60;5.05;;;7.90;99.90;;;;;;6248727;23;20087;-90
2023/03/12 10:15:29;;;;;;;5.60;4.63;;;8.10;1.00;;;;;;6247134;23;20066;-85
2023/03/12 10:18:30;;;;;;;8.55;4.72;;;8.20;99.90;;;;;;6246147;23;20028;-87
2023/03/12 10:21:46;;;;;;;6.18;4.40;;;8.60;99.90;;;;;;6246440;23;20035;-86
2023/03/12 10:24:58;;;;;;;5.40;4.05;;;8.80;1.00;;;;;;6246901;23;20301;-87
2023/03/12 10:27:47;;;;;;;4.78;3.35;;;9.00;99.90;;;;;;6247407;23;20020;-87
2023/03/12 10:30:35;;;;;;;3.70;2.67;;;9.50;1.00;;;;;;6248209;23;20042;-86
2023/03/12 10:33:32;;;;;;;3.00;2.38;;;9.60;99.90;;;;;;6246536;22;20046;-89
2023/03/12 10:36:39;;;;;;;2.17;1.98;;;9.40;99.90;;;;;;6244476;23;20451;-89
2023/03/12 10:39:26;;;;;;;3.65;1.80;;;10.30;99.90;;;;;;6225088;23;20016;-89
2023/03/12 10:42:16;;;;;;;2.78;1.35;;;11.50;1.00;;;;;;6245320;23;20121;-87
2023/03/12 10:45:36;;;;;;;3.17;1.48;;;11.80;1.00;;;;;;6226419;23;20035;-91
2023/03/12 10:48:25;;;;;;;1.75;1.20;;;11.10;99.90;;;;;;6247598;23;20086;-88
2023/03/12 10:51:13;;;;;;;2.47;1.17;;;11.50;99.90;;;;;;6225155;23;20043;-85
2023/03/12 10:54:21;;;;;;;2.10;1.25;;;11.40;99.90;;;;;;6247144;23;20043;-89
2023/03/12 10:57:10;;;;;;;2.20;1.40;;;11.20;99.90;;;;;;6219487;23;20032;-90
2023/03/12 11:00:09;;;;;;;1.75;1.40;;;11.60;99.90;;;;;;6216458;23;20028;-91
2023/03/12 11:03:02;;;;;;;4.00;1.42;;;12.00;99.90;;;;;;6196559;23;20025;-85
2023/03/12 11:05:53;;;;;;;3.78;1.52;;;11.20;99.90;;;;;;6217094;23;20032;-87
2023/03/12 11:09:00;;;;;;;3.17;1.45;;;11.00;99.90;;;;;;6217969;23;20020;-89
2023/03/12 11:12:25;;;;;;;4.45;1.83;;;11.70;99.90;;;;;;6218543;23;20040;-89
2023/03/12 11:15:41;;;;;;;2.30;1.33;;;11.50;99.90;;;;;;6217434;23;20035;-88
2023/03/12 11:18:36;;;;;;;4.00;1.27;;;11.50;99.90;;;;;;6218536;23;20036;-89
2023/03/12 11:21:24;;;;;;;2.15;1.10;;;12.70;99.90;;;;;;6198724;23;20028;-88
2023/03/12 11:24:21;;;;;;;3.85;1.08;;;13.70;1.00;;;;;;6217795;23;20020;-92
2023/03/12 11:27:32;;;;;;;4.15;1.75;;;13.10;1.00;;;;;;6217330;23;20024;-90
2023/03/12 11:30:37;;;;;;;5.65;2.42;;;13.50;1.00;;;;;;6217903;22;20436;-89
2023/03/12 11:33:25;;;;;;;3.50;1.40;;;14.10;1.00;;;;;;6195651;23;20103;-90
2023/03/12 11:36:16;;;;;;;4.13;1.38;;;12.90;99.90;;;;;;6217959;23;20038;-90
2023/03/12 11:39:22;;;;;;;3.50;1.20;;;13.00;1.00;;;;;;6217616;23;20408;-91
2023/03/12 11:42:24;;;;;;;3.35;1.27;;;13.50;1.00;;;;;;6214868;23;20031;-88
2023/03/12 11:45:39;;;;;;;5.13;1.63;;;13.60;99.90;;;;;;6214693;23;20142;-87
2023/03/12 11:48:39;;;;;;;4.75;1.75;;;12.30;99.90;;;;;;6216256;23;20035;-90
2023/03/12 11:51:27;;;;;;;4.47;1.75;;;12.30;99.90;;;;;;6215566;23;20090;-88
2023/03/12 11:54:52;;;;;;;7.95;1.77;;;11.90;1.00;;;;;;6218072;23;20032;-86
2023/03/12 11:58:11;;;;;;;7.45;1.80;;;12.90;1.00;;;;;;6215750;23;20042;-84
2023/03/12 12:01:17;;;;;;;7.13;1.60;;;14.10;99.90;;;;;;6213425;23;20281;-86
2023/03/12 12:04:46;;;;;;;12.40;2.88;;;13.70;99.90;;;;;;6214075;23;20040;-83
2023/03/12 12:07:33;;;;;;;6.95;1.98;;;12.60;99.90;;;;;;6213731;23;20036;-85
2023/03/12 12:10:37;;;;;;;8.95;1.80;;;13.10;99.90;;;;;;6215562;23;20036;-88
2023/03/12 12:13:28;;;;;;;7.10;2.30;;;13.80;99.90;;;;;;6215701;23;20029;-87
2023/03/12 12:16:30;;;;;;;5.22;1.60;;;14.90;99.90;;;;;;6215912;23;20028;-86
2023/03/12 12:27:31;;;;;;;5.47;1.70;;;16.50;99.90;;;;;;6211029;23;20004;-90
2023/03/12 12:30:24;;;;;;;;;;;16.80;99.90;;;;;;6214711;23;20052;-88
2023/03/12 12:38:45;;;;;;;11.32;2.67;;;13.90;99.90;;;;;;6261350;22;20023;-90
2023/03/12 12:41:40;;;;;;;5.28;1.92;;;13.40;99.90;;;;;;6254002;22;20024;-90
2023/03/12 12:44:40;;;;;;;7.15;2.50;;;13.00;99.90;;;;;;6256179;22;20043;-90
2023/03/12 12:47:43;;;;;;;6.32;1.95;;;12.70;99.90;;;;;;6254442;22;20478;-92
2023/03/12 12:50:37;;;;;;;8.15;2.58;;;12.10;99.90;;;;;;6276361;22;20024;-91
2023/03/12 12:53:47;;;;;;;8.30;2.38;;;12.10;99.90;;;;;;6257961;22;20039;-90
2023/03/12 12:56:51;;;;;;;7.93;2.13;;;11.80;99.90;;;;;;6279394;22;20453;-89
2023/03/12 13:00:06;;;;;;;6.38;1.73;;;13.00;99.90;;;;;;6278058;22;20028;-89
2023/03/12 13:02:56;;;;;;;4.70;1.40;;;13.30;99.90;;;;;;6256474;22;20024;-89
2023/03/12 13:06:05;;;;;;;3.95;1.60;;;12.60;99.90;;;;;;6256272;22;20024;-90
2023/03/12 13:09:00;;;;;;;8.77;2.78;;;12.40;99.90;;;;;;6279365;22;20020;-91
2023/03/12 13:11:50;;;;;;;6.85;1.95;;;12.30;99.90;;;;;;6278318;22;20495;-92
2023/03/12 13:14:43;;;;;;;8.52;1.60;;;13.10;99.90;;;;;;6257427;22;20733;-91
2023/03/12 13:17:34;;;;;;;7.13;2.00;;;12.70;99.90;;;;;;6260192;22;20032;-89
2023/03/12 13:20:44;;;;;;;5.85;1.95;;;11.70;99.90;;;;;;6279473;22;20031;-90
2023/03/12 13:24:19;;;;;;;3.75;1.67;;;11.20;99.90;;;;;;6265426;22;20023;-90
2023/03/12 13:27:24;;;;;;;5.65;1.80;;;11.00;99.90;;;;;;6263552;22;20419;-88
2023/03/12 13:30:46;;;;;;;9.75;2.35;;;10.80;99.90;;;;;;6265398;22;20030;-92
2023/03/12 13:33:47;;;;;;;7.10;1.73;;;10.90;99.90;;;;;;6267104;22;20035;-91
2023/03/12 13:36:37;;;;;;;6.57;1.60;;;11.20;99.90;;;;;;6267547;22;20035;-91
2023/03/12 13:39:34;;;;;;;4.35;1.60;;;11.10;99.90;;;;;;6262774;22;20097;-90
2023/03/12 13:42:23;;;;;;;9.10;2.28;;;11.40;99.90;;;;;;6261268;22;20021;-90
2023/03/12 13:45:24;;;;;;;6.25;2.72;;;11.80;99.90;;;;;;6283519;22;20037;-91
2023/03/12 13:48:21;;;;;;;6.20;1.83;;;11.90;99.90;;;;;;6260438;22;20019;-93
2023/03/12 13:51:41;;;;;;;5.00;1.80;;;11.70;99.90;;;;;;6265968;22;20080;-93
2023/03/12 13:54:40;;;;;;;6.03;2.53;;;11.40;99.90;;;;;;6265475;22;20038;-91
2023/03/12 13:57:48;;;;;;;4.10;1.50;;;11.10;99.90;;;;;;6286871;22;20024;-91
2023/03/12 14:00:40;;;;;;;2.63;1.27;;;10.90;99.90;;;;;;6265954;22;20027;-92
2023/03/12 14:03:39;;;;;;;4.40;1.40;;;10.70;99.90;;;;;;6283300;22;20068;-90
2023/03/12 14:06:32;;;;;;;2.60;1.33;;;10.90;99.90;;;;;;6260078;22;20028;-90
2023/03/12 14:09:52;;;;;;;3.03;1.25;;;11.40;99.90;;;;;;6260885;22;20034;-93
2023/03/12 14:13:17;;;;;;;6.03;1.40;;;11.20;99.90;;;;;;6246714;22;20030;-91
2023/03/12 14:16:20;;;;;;;3.30;1.60;;;10.80;99.90;;;;;;6263361;22;20020;-91
2023/03/12 14:19:14;;;;;;;7.22;1.88;;;11.00;99.90;;;;;;6280995;22;20069;-90
2023/03/12 14:22:07;;;;;;;6.20;1.88;;;11.90;99.90;;;;;;6278340;22;20027;-89
2023/03/12 14:24:57;;;;;;;6.40;1.40;;;13.10;99.90;;;;;;6257878;22;20311;-90
2023/03/12 14:27:48;;;;;;;6.13;1.98;;;13.50;99.90;;;;;;6257755;22;20051;-93
2023/03/12 14:30:44;;;;;;;4.75;2.00;;;13.60;99.90;;;;;;6278863;22;20081;-91
2023/03/12 14:34:25;;;;;;;8.88;1.90;;;14.30;99.90;;;;;;6280655;22;20453;-91
2023/03/12 14:37:23;;;;;;;5.25;1.88;;;15.30;99.90;;;;;;6259518;22;20081;-91
2023/03/12 14:40:21;;;;;;;7.20;2.00;;;15.80;99.90;;;;;;6285065;22;20030;-92
2023/03/12 14:43:25;;;;;;;9.25;2.42;;;15.50;99.90;;;;;;6285894;22;20074;-91
2023/03/12 14:46:17;;;;;;;8.20;1.95;;;14.70;99.90;;;;;;6261356;22;20051;-93
2023/03/12 14:49:25;;;;;;;7.50;1.77;;;13.70;99.90;;;;;;6261185;22;20035;-91
2023/03/12 14:52:21;;;;;;;;;;;13.60;99.90;;;;;;6265034;22;20106;-92
2023/03/12 14:55:21;;;;;;;8.75;2.10;;;14.00;99.90;;;;;;6259917;22;19926;-91
2023/03/12 14:58:19;;;;;;;5.32;2.28;;;12.90;99.90;;;;;;6261306;22;20038;-92
2023/03/12 15:01:23;;;;;;;5.43;1.90;;;12.60;99.90;;;;;;6281816;22;20031;-91
2023/03/12 15:04:17;;;;;;;12.18;2.63;;;12.30;99.90;;;;;;6257385;22;20300;-91
2023/03/12 15:07:08;;;;;;;4.25;1.70;;;12.70;99.90;;;;;;6279272;22;20461;-90
2023/03/12 15:09:56;;;;;;;5.97;2.03;;;13.70;99.90;;;;;;6255576;22;20024;-92
2023/03/12 15:12:45;;;;;;;10.63;2.65;;;14.70;99.90;;;;;;6254266;22;20054;-91
2023/03/12 15:15:41;;;;;;;7.00;2.33;;;13.90;99.90;;;;;;6256782;22;20024;-87
2023/03/12 15:18:31;;;;;;;10.45;2.40;;;12.80;99.90;;;;;;6257121;22;20023;-90
2023/03/12 15:21:20;;;;;;;11.18;2.60;;;12.60;99.90;;;;;;6283661;22;20034;-89
2023/03/12 15:24:12;;;;;;;9.75;2.30;;;12.00;99.90;;;;;;6278485;22;20039;-91
2023/03/12 15:27:23;;;;;;;11.23;2.22;;;11.50;99.90;;;;;;6257043;22;20070;-89
2023/03/12 15:30:25;;;;;;;10.35;2.60;;;11.20;99.90;;;;;;6281336;22;20113;-89
2023/03/12 15:33:16;;;;;;;12.20;2.85;;;11.10;99.90;;;;;;6258813;22;20043;-89
2023/03/12 15:36:24;;;;;;;9.52;2.60;;;11.10;99.90;;;;;;6275972;22;20101;-90
2023/03/12 15:39:36;;;;;;;10.13;2.53;;;11.20;99.90;;;;;;6255941;22;20042;-89
2023/03/12 15:42:26;;;;;;;9.05;2.40;;;11.10;99.90;;;;;;6278521;22;20030;-90
2023/03/12 15:45:26;;;;;;;8.27;2.00;;;11.10;99.90;;;;;;6275962;22;20019;-90
2023/03/12 15:48:28;;;;;;;10.30;2.58;;;10.90;99.90;;;;;;6259723;22;20023;-92
2023/03/12 15:51:34;;;;;;;9.38;2.30;;;10.80;99.90;;;;;;6258559;22;20038;-89
2023/03/12 15:54:30;;;;;;;9.52;2.22;;;10.70;99.90;;;;;;6275217;22;20098;-87
2023/03/12 15:57:24;;;;;;;10.70;2.50;;;10.70;99.90;;;;;;6260476;22;20098;-91
2023/03/12 16:00:20;;;;;;;8.73;2.00;;;10.70;99.90;;;;;;6280489;22;20024;-90
2023/03/12 16:03:17;;;;;;;9.48;2.50;;;10.70;99.90;;;;;;6281907;22;20308;-91
2023/03/12 16:06:10;;;;;;;10.27;3.05;;;10.60;99.90;;;;;;6258712;22;20050;-89
2023/03/12 16:09:15;;;;;;;13.55;2.88;;;10.60;99.90;;;;;;6261129;22;20019;-91
2023/03/12 16:12:09;;;;;;;11.43;2.63;;;10.50;99.90;;;;;;6280761;22;20090;-90
2023/03/12 16:15:00;;;;;;;10.63;2.88;;;10.50;99.90;;;;;;6261581;22;20034;-91
2023/03/12 16:17:48;;;;;;;7.82;2.60;;;10.50;99.90;;;;;;6279649;22;20182;-89
2023/03/12 16:20:35;;;;;;;14.82;3.40;;;10.50;99.90;;;;;;6278539;22;20016;-91
2023/03/12 16:23:25;;;;;;;14.45;3.63;;;10.40;99.90;;;;;;6261495;22;20039;-87
2023/03/12 16:26:14;;;;;;;12.23;3.63;;;10.40;99.90;;;;;;6262481;22;20030;-91
2023/03/12 16:29:02;;;;;;;14.23;3.65;;;10.40;99.90;;;;;;6281428;22;20024;-90
2023/03/12 16:31:56;;;;;;;9.57;3.10;;;10.30;99.90;;;;;;6240330;22;20024;-89
2023/03/12 16:34:46;;;;;;;9.48;2.78;;;10.30;99.90;;;;;;6258029;22;20468;-88
2023/03/12 16:37:34;;;;;;;12.68;3.13;;;10.30;99.90;;;;;;6288233;22;20026;-87
2023/03/12 16:40:24;;;;;;;10.52;3.28;;;10.30;99.90;;;;;;6259810;22;20051;-86
2023/03/12 16:43:22;;;;;;;15.50;3.38;;;10.20;99.90;;;;;;6264427;22;20077;-87